Página principal
METAR-TAF:

METAR-TAF

Aeroportos :

Magnitogorsk, Rússia

latitude: 53-23-36N, longitude: 058-45-24E, altura: 436 m

Observação actual do tempo

O boletim foi feito há 20 minutos, às 02:00 UTC
Vento 6 kt de norte
Temperatura -7°C
Humidade 73%
Pressão 1023 hPa
Visibilidade 10 km ou mais

METAR: USCM 190200Z 35003MPS 9999 NSC M07/M11 Q1023 R36/090060 NOSIG RMK QFE728

Hora: 07:20 (02:20 UTC)

Previsão

O boletim foi feito há 3 horas e 20 minutos, às 23:00 UTC
Previsão válida de 19 às 00 UTC a 19 às 09 UTC
Vento 6 kt de nordeste com rajadas de 19 kt
Visibilidade 10 km ou mais
Nuvens dispersasa uma altura de 3000 ft, Cumulonimbus.
Temporariamente
de 19 às 00 UTC a 19 às 04 UTC
Vento 6 kt de nor-noroeste
Visibilidade: 3100 m
neblina, fumo
Temporariamente
de 19 às 04 UTC a 19 às 09 UTC
Vento 10 kt de nordeste com rajadas de 25 kt

TAF: USCM 182300Z 1900/1909 04003G10MPS 9999 SCT030CB TEMPO 1900/1904 34003MPS 3100 BR FU TEMPO 1904/1909 04005G13MPS

Observações e previsões do tempo de mais de 4000 aeroportos (mensagens METAR e TAF).

As estações disponíveis são os pontos amarelos e vermelhos sobre o mapa.

Mova o rato sobre o mapa para ver o nome da estação.

Depois clique no ponto para visualizar as observações e previsões meteorológicas.

Para alterar o mapa : clique nos botões verdes com uma cruz preta para aumentar o zoom; no botão verde com uma pitada de zoom; ou nas setas verdes para mapas adjacentes.


METAR-TAF: